Tullahassee, Oklahoma
Current Conditions -  °F | °C
As of 5:53 AM on Sunday 25 Jan 2015 (Local Time) from KMKO Reporting Station
Few Clouds Few Clouds  
Wind Chill: 39°   Ceiling: Unl
Heat Index: 44°   Visibility: 10mi
Dew Point: 33°   Wind: 9mph
Humidity: 65%   Direction: 280°W
Pressure: 29.83"   Gusts: NA
Location:  35.84°N, 95.44°W
Report Text: KMKO 251153Z AUTO 28008KT 10SM FEW085 FEW110 07/01 A2983 RMK AO2 SLP103 60000 T00670006 10100 20067 53004
Loading
Personal Weather Stations






























Interactive Weather Map New forecast layout! Learn more

10-Day Weather Forecast

Advertisements
Track Severe Weather on mobile